Time;durP1;ratioP1;P1;durP2;ratioP2;P2;SDS_P1;SDS_P2;PMS_P1;PMS_P2;Temp;Humidity;BMP_temperature;BMP_pressure;BME280_temperature;BME280_humidity;BME280_pressure;Samples;Min_cycle;Max_cycle;Signal;HPM_P1;HPM_P2
2021/03/12 00:00:44;;;;;;;10.35;2.63;;;;;;;5.53;77.11;99728.19;5043791;28;20025;-74
2021/03/12 00:03:13;;;;;;;6.65;2.40;;;;;;;5.52;77.56;99731.09;5045775;28;20040;-75
2021/03/12 00:05:44;;;;;;;6.45;1.92;;;;;;;5.58;77.47;99728.31;5041215;28;20048;-75
2021/03/12 00:08:10;;;;;;;4.72;2.03;;;;;;;5.61;77.36;99733.13;5044124;28;20645;-75
2021/03/12 00:10:35;;;;;;;6.90;2.20;;;;;;;5.64;77.16;99742.47;5020185;28;20402;-75
2021/03/12 00:13:01;;;;;;;8.15;3.13;;;;;;;5.65;77.35;99744.09;5041240;28;20033;-75
2021/03/12 00:15:27;;;;;;;6.10;1.80;;;;;;;5.64;77.33;99734.50;5043960;28;20066;-75
2021/03/12 00:17:52;;;;;;;7.18;2.28;;;;;;;5.64;77.54;99748.59;5042079;28;20502;-75
2021/03/12 00:20:21;;;;;;;3.00;1.63;;;;;;;5.63;77.88;99740.88;5025785;28;20063;-75
2021/03/12 00:22:47;;;;;;;5.97;1.92;;;;;;;5.69;77.58;99748.69;5046097;28;20525;-75
2021/03/12 00:25:17;;;;;;;4.15;2.00;;;;;;;5.71;77.24;99737.81;5039912;28;20078;-75
2021/03/12 00:27:43;;;;;;;9.30;2.25;;;;;;;5.68;77.52;99747.06;5047459;28;20048;-75
2021/03/12 00:30:10;;;;;;;6.70;1.73;;;;;;;5.61;77.55;99754.41;5025250;28;21006;-75
2021/03/12 00:32:36;;;;;;;7.30;1.83;;;;;;;5.67;77.01;99757.94;5043072;28;20289;-75
2021/03/12 00:35:03;;;;;;;4.45;1.63;;;;;;;5.69;76.37;99777.91;5041865;28;20112;-75
2021/03/12 00:37:29;;;;;;;5.47;2.00;;;;;;;5.67;76.29;99780.00;5040104;28;20017;-75
2021/03/12 00:39:54;;;;;;;5.93;1.92;;;;;;;5.70;76.15;99774.19;5043748;28;20372;-75
2021/03/12 00:42:20;;;;;;;3.55;2.05;;;;;;;5.71;75.68;99788.28;5046464;28;20398;-75
2021/03/12 00:44:46;;;;;;;5.28;1.55;;;;;;;5.72;75.64;99782.75;5043637;28;20115;-75
2021/03/12 00:47:12;;;;;;;2.90;1.73;;;;;;;5.66;75.93;99775.72;5041236;28;20060;-75
2021/03/12 00:49:37;;;;;;;4.82;1.80;;;;;;;5.69;75.80;99772.59;5038612;28;20034;-75
2021/03/12 00:52:03;;;;;;;3.42;1.55;;;;;;;5.65;76.59;99776.78;5047497;28;20364;-75
2021/03/12 00:54:29;;;;;;;2.92;1.52;;;;;;;5.71;75.95;99775.00;5024854;28;20032;-75
2021/03/12 00:56:55;;;;;;;6.03;2.25;;;;;;;5.73;75.91;99786.19;5022138;28;20025;-75
2021/03/12 00:59:20;;;;;;;4.55;1.67;;;;;;;5.80;75.78;99778.09;5026128;28;20043;-75
2021/03/12 01:01:46;;;;;;;2.67;1.88;;;;;;;5.69;76.50;99779.75;5024675;28;20410;-75
2021/03/12 01:04:11;;;;;;;4.38;1.85;;;;;;;5.69;76.46;99780.56;5042924;28;20035;-75
2021/03/12 01:06:37;;;;;;;2.72;1.60;;;;;;;5.64;76.45;99785.81;5038872;28;20453;-75
2021/03/12 01:09:03;;;;;;;3.40;1.52;;;;;;;5.69;76.45;99780.56;5042498;28;20058;-75
2021/03/12 01:11:29;;;;;;;5.55;1.92;;;;;;;5.47;77.43;99784.97;5038959;28;20115;-75
2021/03/12 01:13:55;;;;;;;4.88;2.15;;;;;;;5.46;77.91;99786.81;5040598;28;20148;-75
2021/03/12 01:16:20;;;;;;;4.82;2.28;;;;;;;5.40;77.80;99794.94;5039932;28;20032;-74
2021/03/12 01:18:46;;;;;;;5.05;2.00;;;;;;;5.41;77.95;99797.34;5024056;28;20032;-75
2021/03/12 01:21:12;;;;;;;6.60;2.05;;;;;;;5.31;78.32;99801.66;5027812;28;21813;-75
2021/03/12 01:23:37;;;;;;;5.35;2.53;;;;;;;5.19;79.01;99799.03;5028835;28;20036;-75
2021/03/12 01:26:03;;;;;;;3.90;1.90;;;;;;;5.15;79.14;99793.38;5044227;28;20090;-75
2021/03/12 01:28:28;;;;;;;6.45;2.40;;;;;;;5.20;79.02;99784.69;5047011;28;20163;-75
2021/03/12 01:30:54;;;;;;;3.97;1.98;;;;;;;5.06;79.43;99784.19;5042078;28;20079;-75
2021/03/12 01:33:20;;;;;;;6.30;1.80;;;;;;;5.11;79.45;99797.56;5043469;28;20028;-75
2021/03/12 01:35:45;;;;;;;10.32;2.28;;;;;;;5.02;79.91;99793.63;5032600;28;20052;-75
2021/03/12 01:38:11;;;;;;;5.20;2.55;;;;;;;4.96;79.98;99791.94;5048937;28;20113;-75
2021/03/12 01:40:48;;;;;;;3.30;2.08;;;;;;;4.96;79.60;99793.78;5037200;28;20036;-75
2021/03/12 01:43:14;;;;;;;8.40;2.63;;;;;;;4.80;80.75;99787.34;5043150;28;20105;-75
2021/03/12 01:45:46;;;;;;;4.97;2.00;;;;;;;4.79;80.65;99794.50;5024563;28;20206;-75
2021/03/12 01:48:14;;;;;;;5.75;1.83;;;;;;;4.80;80.72;99790.00;5013580;28;20029;-75
2021/03/12 01:50:42;;;;;;;7.35;2.40;;;;;;;4.83;80.16;99794.84;5023745;28;20182;-75
2021/03/12 01:53:10;;;;;;;5.22;2.03;;;;;;;4.81;80.18;99794.25;5036011;28;20048;-75
2021/03/12 01:55:37;;;;;;;3.17;1.95;;;;;;;4.81;79.71;99788.97;5038750;28;20108;-75
2021/03/12 01:58:03;;;;;;;4.18;2.53;;;;;;;4.91;79.42;99794.50;5026202;28;20436;-75
2021/03/12 02:00:29;;;;;;;5.88;1.67;;;;;;;4.92;79.01;99793.44;5023788;28;20024;-75
2021/03/12 02:02:56;;;;;;;4.22;2.05;;;;;;;4.80;79.32;99800.63;5041009;28;20032;-75
2021/03/12 02:05:21;;;;;;;8.25;2.17;;;;;;;4.81;79.58;99796.91;5025892;28;20037;-75
2021/03/12 02:07:47;;;;;;;5.90;2.42;;;;;;;4.81;79.65;99795.06;5035464;28;20025;-75
2021/03/12 02:10:17;;;;;;;4.85;1.98;;;;;;;4.85;79.34;99798.09;5026474;28;20664;-75
2021/03/12 02:13:08;;;;;;;5.57;1.70;;;;;;;4.74;79.30;99789.09;5020931;28;20483;-75
2021/03/12 02:15:45;;;;;;;4.65;1.90;;;;;;;4.79;78.74;99786.53;5040555;28;20094;-75
2021/03/12 02:18:34;;;;;;;2.85;2.05;;;;;;;4.82;78.91;99795.88;5038730;28;20041;-75
2021/03/12 02:21:27;;;;;;;3.85;2.08;;;;;;;4.87;78.69;99801.31;5019026;28;20025;-75
2021/03/12 02:23:52;;;;;;;2.45;1.70;;;;;;;4.85;78.76;99811.34;5042703;28;20407;-75
2021/03/12 02:26:30;;;;;;;2.78;1.60;;;;;;;4.87;78.67;99819.88;5030235;28;20037;-75
2021/03/12 02:28:58;;;;;;;3.72;1.80;;;;;;;4.89;78.09;99823.13;5015376;28;20490;-76
2021/03/12 02:31:24;;;;;;;4.50;2.53;;;;;;;4.86;78.22;99831.56;5024349;28;20032;-75
2021/03/12 02:33:50;;;;;;;6.70;1.85;;;;;;;4.91;78.10;99823.69;5041669;28;20037;-75
2021/03/12 02:36:22;;;;;;;2.95;1.52;;;;;;;4.97;77.58;99825.41;5036441;28;20059;-75
2021/03/12 02:38:49;;;;;;;4.72;1.67;;;;;;;5.00;77.19;99840.84;5036732;28;20044;-75
2021/03/12 02:41:15;;;;;;;3.20;1.50;;;;;;;5.02;77.26;99833.47;5030840;22;20460;-75
2021/03/12 02:43:41;;;;;;;4.75;2.10;;;;;;;4.97;77.60;99832.56;5027186;28;20037;-75
2021/03/12 02:46:08;;;;;;;2.63;1.33;;;;;;;5.04;77.34;99843.88;5028642;28;20394;-75
2021/03/12 02:48:34;;;;;;;3.45;1.70;;;;;;;5.11;76.93;99844.53;5034785;28;20056;-75
2021/03/12 02:51:03;;;;;;;3.75;1.27;;;;;;;5.01;77.06;99841.66;5017733;28;20088;-75
2021/03/12 02:53:28;;;;;;;5.47;1.55;;;;;;;5.02;76.74;99836.13;5018024;28;20021;-77
2021/03/12 02:55:55;;;;;;;5.95;1.40;;;;;;;5.08;76.05;99832.53;5017694;28;20807;-76
2021/03/12 02:58:21;;;;;;;2.90;1.10;;;;;;;5.08;75.50;99832.53;5025532;28;20029;-75
2021/03/12 03:00:47;;;;;;;2.85;1.55;;;;;;;5.10;75.48;99838.44;5024015;28;20088;-75
2021/03/12 03:03:14;;;;;;;5.00;1.35;;;;;;;5.08;75.54;99845.81;5021671;28;20033;-76
2021/03/12 03:05:40;;;;;;;3.08;1.25;;;;;;;5.12;75.30;99835.53;5013657;28;20475;-75
2021/03/12 03:08:07;;;;;;;2.45;1.00;;;;;;;5.04;75.06;99852.66;5016527;28;20088;-75
2021/03/12 03:10:33;;;;;;;1.70;0.90;;;;;;;5.00;75.33;99846.16;5023487;28;20057;-75
2021/03/12 03:13:00;;;;;;;2.30;1.00;;;;;;;4.89;75.90;99848.84;5022616;28;20033;-75
2021/03/12 03:15:26;;;;;;;4.93;1.27;;;;;;;4.93;75.34;99850.81;5025838;28;20471;-75
2021/03/12 03:17:54;;;;;;;1.23;0.93;;;;;;;4.82;75.75;99862.22;5020485;28;20414;-75
2021/03/12 03:20:20;;;;;;;2.22;1.20;;;;;;;4.79;75.60;99860.03;5015824;28;20091;-75
2021/03/12 03:22:47;;;;;;;4.97;1.23;;;;;;;4.76;75.78;99858.66;5020507;28;20060;-76
2021/03/12 03:25:13;;;;;;;1.77;0.95;;;;;;;4.68;75.75;99858.22;5014702;28;20048;-76
2021/03/12 03:27:40;;;;;;;5.38;1.20;;;;;;;4.71;75.69;99847.13;5026893;28;20501;-76
2021/03/12 03:30:07;;;;;;;4.15;1.05;;;;;;;4.64;76.06;99860.50;5023361;28;20030;-76
2021/03/12 03:32:33;;;;;;;4.55;1.75;;;;;;;4.63;76.09;99864.19;5022925;28;20657;-75
2021/03/12 03:34:59;;;;;;;3.17;2.10;;;;;;;4.51;76.69;99869.50;5026326;28;20034;-75
2021/03/12 03:37:27;;;;;;;2.45;1.60;;;;;;;4.37;77.77;99870.75;5026089;28;20041;-75
2021/03/12 03:39:53;;;;;;;4.03;1.50;;;;;;;4.38;78.22;99866.25;5024612;28;20601;-75
2021/03/12 03:42:20;;;;;;;3.15;1.60;;;;;;;4.33;79.00;99882.06;5026836;28;20097;-75
2021/03/12 03:44:47;;;;;;;4.15;1.70;;;;;;;4.34;79.05;99876.53;5023405;28;20026;-75
2021/03/12 03:47:13;;;;;;;5.38;1.52;;;;;;;4.38;79.51;99880.31;5015937;28;20044;-75
2021/03/12 03:49:43;;;;;;;3.40;1.70;;;;;;;4.34;79.90;99892.44;5014438;28;20027;-74
2021/03/12 03:52:09;;;;;;;6.07;2.00;;;;;;;4.29;80.62;99896.78;5013084;28;20815;-75
2021/03/12 03:54:37;;;;;;;3.55;1.92;;;;;;;4.32;80.24;99902.47;5020805;28;20026;-75
2021/03/12 03:57:05;;;;;;;3.83;1.95;;;;;;;4.32;80.39;99906.97;5021559;28;20036;-75
2021/03/12 03:59:32;;;;;;;3.33;1.83;;;;;;;4.45;79.94;99904.88;5018129;28;20079;-75
2021/03/12 04:01:59;;;;;;;9.05;2.30;;;;;;;4.43;80.26;99899.00;5017492;28;20064;-75
2021/03/12 04:04:25;;;;;;;3.38;1.98;;;;;;;4.36;80.85;99906.28;5028276;28;20017;-75
2021/03/12 04:06:51;;;;;;;3.88;2.22;;;;;;;4.40;80.70;99915.38;5023008;28;20037;-75
2021/03/12 04:09:17;;;;;;;2.67;1.90;;;;;;;4.45;80.18;99918.16;5037066;28;20061;-75
2021/03/12 04:11:44;;;;;;;8.45;1.92;;;;;;;4.54;80.09;99916.78;5035614;28;20030;-75
2021/03/12 04:14:11;;;;;;;4.25;1.70;;;;;;;4.54;79.94;99930.06;5020556;28;20108;-75
2021/03/12 04:16:38;;;;;;;4.13;2.20;;;;;;;4.59;79.63;99923.25;5024622;28;20511;-75
2021/03/12 04:19:04;;;;;;;4.70;1.75;;;;;;;4.69;79.06;99928.81;5026709;28;20060;-75
2021/03/12 04:21:31;;;;;;;4.00;1.70;;;;;;;4.70;78.81;99927.78;5019576;28;20041;-76
2021/03/12 04:23:57;;;;;;;5.05;2.17;;;;;;;4.84;78.19;99924.66;5027609;28;20029;-76
2021/03/12 04:26:24;;;;;;;4.32;2.10;;;;;;;4.80;77.93;99928.81;5011908;28;20407;-75
2021/03/12 04:28:49;;;;;;;4.97;1.98;;;;;;;4.75;78.64;99936.66;5018527;28;20285;-76
2021/03/12 04:31:15;;;;;;;9.20;2.15;;;;;;;4.78;78.40;99946.81;5025768;28;20509;-76
2021/03/12 04:33:42;;;;;;;3.78;2.10;;;;;;;4.77;78.53;99955.81;5019579;28;20033;-75
2021/03/12 04:36:08;;;;;;;3.65;2.15;;;;;;;4.81;78.45;99964.94;5021026;28;20029;-75
2021/03/12 04:38:34;;;;;;;6.38;1.73;;;;;;;4.76;78.71;99961.34;5017062;28;20018;-76
2021/03/12 04:41:02;;;;;;;2.53;1.65;;;;;;;4.82;77.72;99963.06;5020531;28;20147;-75
2021/03/12 04:43:27;;;;;;;3.50;1.73;;;;;;;4.85;77.73;99957.34;5020124;28;20861;-75
2021/03/12 04:45:53;;;;;;;3.33;1.65;;;;;;;4.84;77.81;99968.97;5017170;28;20026;-74
2021/03/12 04:48:19;;;;;;;6.53;1.83;;;;;;;4.84;77.93;99974.28;5024783;28;20606;-76
2021/03/12 04:50:45;;;;;;;5.70;1.88;;;;;;;4.79;78.12;99980.28;5023049;28;20070;-75
2021/03/12 04:53:11;;;;;;;6.25;2.47;;;;;;;4.77;77.65;99973.59;5009477;28;20029;-75
2021/03/12 04:55:36;;;;;;;6.85;1.92;;;;;;;4.67;78.00;99973.31;5018644;28;20103;-75
2021/03/12 04:58:03;;;;;;;4.32;2.15;;;;;;;4.60;78.03;99967.31;5016540;28;20065;-76
2021/03/12 05:00:31;;;;;;;5.43;1.90;;;;;;;4.44;78.58;99987.34;5033191;28;20022;-76
2021/03/12 05:02:57;;;;;;;11.02;2.35;;;;;;;4.41;78.82;99993.09;5024263;28;20183;-75
2021/03/12 05:05:23;;;;;;;3.60;2.00;;;;;;;4.33;79.20;99996.09;5022369;28;20026;-75
2021/03/12 05:07:49;;;;;;;6.32;2.70;;;;;;;4.37;78.97;100005.22;5016417;28;20034;-75
2021/03/12 05:10:15;;;;;;;7.32;1.90;;;;;;;4.43;79.03;100017.56;5025359;28;20176;-75
2021/03/12 05:12:41;;;;;;;4.43;1.80;;;;;;;4.51;78.82;100020.72;5023918;28;20461;-75
2021/03/12 05:15:07;;;;;;;7.50;1.90;;;;;;;4.59;78.36;100016.13;5016433;28;20025;-77
2021/03/12 05:17:33;;;;;;;4.78;1.98;;;;;;;4.61;77.80;100003.44;5015916;28;20022;-75
2021/03/12 05:19:58;;;;;;;2.55;1.63;;;;;;;4.57;77.93;100019.00;5023858;28;20087;-75
2021/03/12 05:22:24;;;;;;;5.30;1.65;;;;;;;4.54;78.08;100019.44;5025283;28;20567;-75
2021/03/12 05:24:49;;;;;;;4.75;2.17;;;;;;;4.46;78.08;100033.81;5027639;28;20032;-75
2021/03/12 05:27:15;;;;;;;7.40;2.17;;;;;;;4.50;77.93;100029.72;5014563;28;20117;-76
2021/03/12 05:29:41;;;;;;;6.18;2.58;;;;;;;4.46;77.48;100023.22;5021670;28;20453;-75
2021/03/12 05:32:06;;;;;;;3.70;1.75;;;;;;;4.42;77.90;100022.06;5024143;28;20060;-74
2021/03/12 05:34:32;;;;;;;7.65;1.90;;;;;;;4.38;77.76;100025.38;5023164;28;20021;-74
2021/03/12 05:36:58;;;;;;;2.97;1.50;;;;;;;4.31;77.78;100027.31;5017518;28;20017;-74
2021/03/12 05:39:24;;;;;;;6.13;1.85;;;;;;;4.20;77.84;100019.09;5014984;28;20052;-76
2021/03/12 05:41:50;;;;;;;6.53;2.03;;;;;;;4.22;77.47;100026.81;5020565;28;20044;-70
2021/03/12 05:44:18;;;;;;;2.97;2.00;;;;;;;4.23;77.24;100039.84;5012747;28;20029;-70
2021/03/12 05:46:45;;;;;;;4.47;2.20;;;;;;;4.25;77.25;100050.22;5015829;28;20029;-70
2021/03/12 05:49:12;;;;;;;5.40;2.08;;;;;;;4.25;77.45;100058.19;5011423;28;20152;-72
2021/03/12 05:51:38;;;;;;;5.13;1.45;;;;;;;4.37;77.38;100060.91;5024755;28;20025;-72
2021/03/12 05:54:05;;;;;;;5.90;2.67;;;;;;;4.48;77.02;100073.38;5019856;28;20037;-72
2021/03/12 05:56:34;;;;;;;7.25;2.30;;;;;;;4.47;76.30;100077.06;5015871;28;20053;-72
2021/03/12 05:59:01;;;;;;;3.85;1.50;;;;;;;4.52;76.74;100082.53;5019038;28;20025;-72
2021/03/12 06:01:27;;;;;;;7.32;2.10;;;;;;;4.50;76.57;100074.81;5019735;28;20190;-72
2021/03/12 06:03:52;;;;;;;8.38;1.70;;;;;;;4.47;76.74;100085.03;5014468;28;20041;-72
2021/03/12 06:06:18;;;;;;;8.60;1.83;;;;;;;4.48;76.78;100090.13;5009084;28;20030;-72
2021/03/12 06:08:44;;;;;;;3.92;1.75;;;;;;;4.51;76.70;100091.53;5010560;28;20275;-72
2021/03/12 06:11:09;;;;;;;6.22;1.83;;;;;;;4.50;76.69;100104.00;5013127;28;20029;-72
2021/03/12 06:13:48;;;;;;;2.35;1.65;;;;;;;4.52;76.70;100103.75;5012459;28;20410;-72
2021/03/12 06:16:27;;;;;;;8.63;1.60;;;;;;;4.54;76.35;100102.50;5007361;28;20520;-72
2021/03/12 06:19:13;;;;;;;4.65;1.70;;;;;;;4.60;76.53;100102.63;5018454;28;20413;-72
2021/03/12 06:21:40;;;;;;;6.78;1.80;;;;;;;4.70;75.92;100119.66;5011749;28;20227;-72
2021/03/12 06:24:30;;;;;;;5.95;1.88;;;;;;;4.74;75.83;100120.81;5011413;28;20030;-72
2021/03/12 06:26:56;;;;;;;5.97;1.70;;;;;;;4.80;75.55;100127.06;5013084;28;20567;-72
2021/03/12 06:29:38;;;;;;;5.65;2.05;;;;;;;4.73;75.60;100129.00;5010772;28;20026;-72
2021/03/12 06:32:05;;;;;;;5.55;2.30;;;;;;;4.86;75.10;100134.13;5015698;28;20048;-72
2021/03/12 06:34:32;;;;;;;4.47;1.90;;;;;;;4.93;74.91;100137.50;5016591;28;20036;-73
2021/03/12 06:36:58;;;;;;;5.82;2.13;;;;;;;4.92;74.76;100122.59;5035127;28;20502;-72
2021/03/12 06:39:34;;;;;;;4.93;2.00;;;;;;;4.88;74.96;100161.25;5011110;28;20022;-72
2021/03/12 06:42:07;;;;;;;6.00;2.45;;;;;;;4.91;75.08;100147.53;5007697;28;20105;-72
2021/03/12 06:44:35;;;;;;;4.63;2.10;;;;;;;5.04;74.26;100162.47;5011282;28;20087;-72
2021/03/12 06:47:02;;;;;;;3.78;1.83;;;;;;;5.14;74.35;100155.56;5011935;28;20040;-72
2021/03/12 06:49:28;;;;;;;6.18;2.83;;;;;;;5.06;74.22;100190.41;5015258;28;20124;-72
2021/03/12 06:51:56;;;;;;;4.43;2.40;;;;;;;5.11;74.09;100165.84;5017581;28;20113;-72
2021/03/12 06:54:23;;;;;;;6.18;1.88;;;;;;;5.11;74.19;100155.22;5016370;28;20115;-72
2021/03/12 06:56:49;;;;;;;10.95;2.85;;;;;;;5.13;74.37;100166.41;5011598;28;20036;-72
2021/03/12 06:59:25;;;;;;;7.00;2.85;;;;;;;5.14;74.02;100166.19;5009850;28;20021;-73
2021/03/12 07:02:06;;;;;;;6.45;2.50;;;;;;;5.37;72.94;100172.59;5022444;28;20061;-72
2021/03/12 07:04:32;;;;;;;3.70;1.88;;;;;;;5.61;72.52;100179.59;5014749;28;20018;-72
2021/03/12 07:06:59;;;;;;;5.25;1.98;;;;;;;5.68;72.25;100174.97;5017483;28;20469;-72
2021/03/12 07:09:26;;;;;;;4.88;2.47;;;;;;;5.76;72.09;100177.31;5012288;28;20081;-72
2021/03/12 07:12:00;;;;;;;5.20;2.40;;;;;;;6.06;70.63;100187.03;5015403;28;20369;-72
2021/03/12 07:14:33;;;;;;;5.68;2.47;;;;;;;5.99;70.74;100186.34;5012413;28;20079;-72
2021/03/12 07:17:00;;;;;;;8.07;2.75;;;;;;;6.14;70.62;100197.34;5013663;28;20030;-72
2021/03/12 07:19:26;;;;;;;3.50;2.20;;;;;;;6.01;71.07;100184.25;5030350;28;20490;-72
2021/03/12 07:21:57;;;;;;;7.63;2.45;;;;;;;6.10;71.35;100193.50;5019572;28;20025;-72
2021/03/12 07:24:24;;;;;;;6.22;2.75;;;;;;;6.29;70.18;100189.69;5017041;28;20026;-72
2021/03/12 07:26:54;;;;;;;5.78;2.55;;;;;;;6.59;69.54;100204.66;5018636;28;20232;-72
2021/03/12 07:29:22;;;;;;;8.45;2.53;;;;;;;6.42;70.08;100209.91;5019878;28;20033;-72
2021/03/12 07:31:51;;;;;;;6.85;2.53;;;;;;;6.14;70.32;100202.66;5022583;28;20486;-72
2021/03/12 07:34:19;;;;;;;6.97;2.78;;;;;;;6.43;69.31;100210.72;5016222;28;20095;-72
2021/03/12 07:36:48;;;;;;;3.90;2.47;;;;;;;6.45;67.90;100196.13;5013669;28;20088;-72
2021/03/12 07:39:23;;;;;;;6.40;2.10;;;;;;;6.49;68.94;100212.44;5010628;28;20624;-72
2021/03/12 07:41:50;;;;;;;7.03;3.03;;;;;;;6.33;68.66;100198.81;5011106;28;20037;-72
2021/03/12 07:44:20;;;;;;;5.82;2.80;;;;;;;6.24;68.97;100200.19;5012967;28;20052;-72
2021/03/12 07:46:49;;;;;;;7.82;3.50;;;;;;;6.53;68.87;100208.28;5018284;28;20033;-72
2021/03/12 07:49:27;;;;;;;3.83;2.35;;;;;;;6.62;68.46;100218.31;5009202;28;20495;-72
2021/03/12 07:51:52;;;;;;;5.07;2.60;;;;;;;6.70;67.74;100230.47;5026749;28;20036;-72
2021/03/12 07:54:39;;;;;;;5.45;2.25;;;;;;;7.10;67.40;100230.44;5009889;28;20033;-73
2021/03/12 07:57:06;;;;;;;5.32;2.60;;;;;;;6.78;67.98;100243.41;5034158;28;20495;-72
2021/03/12 07:59:46;;;;;;;5.05;2.30;;;;;;;6.94;67.46;100245.31;5021457;28;20029;-72
2021/03/12 08:02:13;;;;;;;4.85;2.58;;;;;;;6.85;66.92;100240.63;5017552;28;20033;-72
2021/03/12 08:04:39;;;;;;;4.65;2.20;;;;;;;7.23;65.46;100251.50;5015469;28;20056;-72
2021/03/12 08:07:19;;;;;;;8.95;2.80;;;;;;;6.96;65.34;100231.78;5010212;28;20365;-72
2021/03/12 08:09:56;;;;;;;6.05;2.28;;;;;;;6.66;65.92;100263.94;5011353;28;20037;-73
2021/03/12 08:12:37;;;;;;;4.85;2.72;;;;;;;6.89;65.86;100271.88;5009037;28;20041;-72
2021/03/12 08:15:21;;;;;;;7.85;2.72;;;;;;;6.87;65.88;100267.81;5010160;28;20025;-72
2021/03/12 08:18:09;;;;;;;5.95;2.47;;;;;;;6.83;65.76;100286.13;5015534;28;20104;-72
2021/03/12 08:20:43;;;;;;;9.13;2.70;;;;;;;6.95;65.51;100276.25;5021245;28;20624;-72
2021/03/12 08:23:13;;;;;;;4.68;2.22;;;;;;;6.85;64.93;100275.25;5023762;28;20487;-72
2021/03/12 08:25:39;;;;;;;5.40;2.65;;;;;;;6.86;65.25;100283.00;5013445;28;20109;-72
2021/03/12 08:28:07;;;;;;;4.88;2.90;;;;;;;6.86;65.29;100288.31;5019372;28;20021;-72
2021/03/12 08:30:36;;;;;;;8.20;2.95;;;;;;;7.00;65.15;100286.19;5011004;28;20119;-73
2021/03/12 08:33:05;;;;;;;7.63;2.60;;;;;;;7.08;63.73;100291.16;5009440;28;20029;-72
2021/03/12 08:38:00;;;;;;;5.75;2.35;;;;;;;6.95;64.67;100307.38;5013353;28;20365;-73
2021/03/12 08:40:26;;;;;;;7.47;2.70;;;;;;;6.84;65.23;100301.06;5017148;28;20026;-73
2021/03/12 08:43:00;;;;;;;6.43;2.88;;;;;;;6.88;65.39;100317.38;5015822;28;20057;-73
2021/03/12 08:45:44;;;;;;;3.10;1.95;;;;;;;6.83;64.80;100328.72;5014013;28;20025;-73
2021/03/12 08:48:15;;;;;;;5.43;2.10;;;;;;;6.79;65.36;100319.56;5010386;28;20045;-73
2021/03/12 08:50:54;;;;;;;6.85;2.63;;;;;;;6.70;65.57;100331.63;5022751;28;20029;-73
2021/03/12 08:53:24;;;;;;;4.05;2.20;;;;;;;6.94;63.61;100327.88;5012641;28;20057;-73
2021/03/12 08:55:53;;;;;;;9.80;2.47;;;;;;;7.12;63.11;100324.25;5010863;28;20038;-73
2021/03/12 08:58:29;;;;;;;3.88;2.25;;;;;;;7.19;61.97;100343.59;5007012;28;20105;-73
2021/03/12 09:01:12;;;;;;;3.78;2.00;;;;;;;7.49;61.31;100329.25;5017437;28;20060;-73
2021/03/12 09:03:38;;;;;;;4.85;2.17;;;;;;;7.52;60.92;100337.56;5026006;28;20041;-73
2021/03/12 09:06:09;;;;;;;4.32;2.25;;;;;;;7.39;61.09;100335.22;5016456;28;20034;-73
2021/03/12 09:08:36;;;;;;;5.53;2.40;;;;;;;7.37;61.60;100337.31;5018100;28;20038;-73
2021/03/12 09:11:05;;;;;;;7.00;2.00;;;;;;;7.38;62.07;100344.25;5019535;28;20037;-73
2021/03/12 09:13:36;;;;;;;5.75;2.20;;;;;;;7.14;61.79;100348.81;5012793;28;20479;-73
2021/03/12 09:16:03;;;;;;;9.25;2.35;;;;;;;7.35;61.77;100350.03;5017593;28;20026;-73
2021/03/12 09:18:30;;;;;;;4.13;2.10;;;;;;;7.39;61.56;100345.88;5009613;28;20021;-73
2021/03/12 09:21:09;;;;;;;7.35;2.97;;;;;;;7.47;59.98;100358.00;5011273;28;20025;-73
2021/03/12 09:23:41;;;;;;;5.43;2.00;;;;;;;7.44;60.50;100355.81;5011640;28;20112;-73
2021/03/12 09:26:12;;;;;;;6.90;2.25;;;;;;;7.44;59.53;100364.63;5011303;28;20510;-73
2021/03/12 09:28:38;;;;;;;8.50;2.50;;;;;;;7.27;59.57;100348.56;5015409;28;20033;-73
2021/03/12 09:31:08;;;;;;;4.40;2.08;;;;;;;7.26;60.25;100367.44;5014879;28;20025;-73
2021/03/12 09:33:37;;;;;;;8.60;2.50;;;;;;;7.23;60.74;100365.25;5012727;28;20030;-73
2021/03/12 09:36:23;;;;;;;7.20;1.88;;;;;;;7.37;60.71;100368.47;5013463;28;20036;-73
2021/03/12 09:38:51;;;;;;;8.18;2.63;;;;;;;7.40;60.65;100370.66;5014295;28;20583;-73
2021/03/12 09:41:22;;;;;;;6.75;2.10;;;;;;;7.58;60.59;100379.31;5013037;28;20551;-73
2021/03/12 09:44:06;;;;;;;5.60;1.85;;;;;;;7.73;60.14;100372.66;5016729;28;20335;-73
2021/03/12 09:46:35;;;;;;;5.80;2.25;;;;;;;7.73;59.03;100375.31;5006983;28;20033;-73
2021/03/12 09:49:06;;;;;;;3.38;1.65;;;;;;;7.71;58.73;100372.84;5016169;28;20160;-73
2021/03/12 09:51:32;;;;;;;6.32;2.00;;;;;;;7.79;58.30;100371.69;5020466;28;20553;-73
2021/03/12 09:53:59;;;;;;;7.28;2.08;;;;;;;7.98;57.70;100378.44;5023112;28;20061;-73
2021/03/12 09:56:26;;;;;;;6.72;1.90;;;;;;;7.84;56.42;100379.78;5008766;28;20025;-73
2021/03/12 09:58:51;;;;;;;3.22;1.60;;;;;;;7.73;56.63;100378.78;5010090;28;20527;-73
2021/03/12 10:01:19;;;;;;;5.43;2.60;;;;;;;7.98;56.02;100375.75;5021193;28;20030;-73
2021/03/12 10:03:46;;;;;;;6.63;1.88;;;;;;;8.61;55.45;100385.38;5012706;28;21002;-73
2021/03/12 10:06:14;;;;;;;3.35;1.60;;;;;;;8.78;55.18;100385.34;5020397;28;20079;-73
2021/03/12 10:09:01;;;;;;;5.13;1.50;;;;;;;8.59;53.94;100382.13;5017107;28;20091;-73
2021/03/12 10:11:41;;;;;;;5.35;1.77;;;;;;;8.63;53.15;100377.94;5027060;28;20087;-73
2021/03/12 10:14:39;;;;;;;4.38;1.48;;;;;;;8.83;51.79;100366.75;5015051;28;20033;-73
2021/03/12 10:17:09;;;;;;;5.70;2.00;;;;;;;9.04;50.71;100386.53;4976585;28;20411;-73
2021/03/12 10:19:44;;;;;;;5.07;1.95;;;;;;;9.21;51.40;100390.00;5012262;28;20033;-73
2021/03/12 10:22:17;;;;;;;4.78;1.33;;;;;;;9.12;52.39;100390.66;5019279;28;20036;-73
2021/03/12 10:24:45;;;;;;;2.67;1.67;;;;;;;9.22;52.17;100388.94;5010826;28;20094;-73
2021/03/12 10:27:20;;;;;;;2.60;1.77;;;;;;;9.20;52.62;100407.09;5014307;28;20026;-73
2021/03/12 10:29:46;;;;;;;3.08;2.10;;;;;;;9.23;53.17;100398.56;5014767;28;21664;-73
2021/03/12 10:32:13;;;;;;;3.75;1.67;;;;;;;9.01;53.32;100387.84;5015107;28;20061;-73
2021/03/12 10:34:47;;;;;;;4.28;1.83;;;;;;;9.18;54.00;100400.38;5010522;28;20113;-73
2021/03/12 10:37:17;;;;;;;4.78;2.25;;;;;;;9.63;53.29;100410.81;5013930;28;20492;-73
2021/03/12 10:39:45;;;;;;;4.57;1.77;;;;;;;9.25;52.19;100428.53;5009319;28;20054;-73
2021/03/12 10:42:11;;;;;;;2.28;1.23;;;;;;;9.07;52.42;100416.25;5016981;28;20029;-73
2021/03/12 10:44:51;;;;;;;2.40;1.20;;;;;;;8.44;54.67;100421.97;5016908;28;20488;-73
2021/03/12 10:47:16;;;;;;;3.42;1.60;;;;;;;8.43;56.18;100444.34;5014898;28;20033;-73
2021/03/12 10:49:42;;;;;;;5.72;2.33;;;;;;;8.00;55.52;100440.34;5008822;28;20037;-73
2021/03/12 10:52:08;;;;;;;5.22;1.92;;;;;;;8.56;55.19;100444.03;5007515;28;20117;-73
2021/03/12 10:54:33;;;;;;;8.13;2.03;;;;;;;8.71;54.67;100422.94;5011901;28;20468;-73
2021/03/12 10:56:59;;;;;;;3.70;1.73;;;;;;;9.17;53.92;100442.31;5010477;28;20036;-73
2021/03/12 10:59:24;;;;;;;4.57;2.22;;;;;;;9.51;51.71;100432.31;5009111;28;20048;-73
2021/03/12 11:01:50;;;;;;;4.00;1.60;;;;;;;9.14;48.38;100424.09;5012361;28;20388;-73
2021/03/12 11:04:16;;;;;;;3.58;1.55;;;;;;;9.23;49.45;100425.28;5010447;28;21018;-73
2021/03/12 11:06:43;;;;;;;5.45;1.60;;;;;;;9.29;49.04;100429.66;5006386;28;20033;-73
2021/03/12 11:09:09;;;;;;;8.38;1.90;;;;;;;8.54;48.21;100443.47;5021925;28;20034;-74
2021/03/12 11:11:37;;;;;;;8.23;1.67;;;;;;;8.37;49.92;100442.66;5013239;28;20056;-73
2021/03/12 11:14:03;;;;;;;5.68;1.67;;;;;;;8.18;51.63;100463.38;5012242;28;20029;-73
2021/03/12 11:16:28;;;;;;;5.47;2.47;;;;;;;8.49;50.69;100443.41;5013165;28;20446;-73
2021/03/12 11:18:54;;;;;;;4.88;1.73;;;;;;;8.73;49.98;100436.84;5012452;28;20104;-73
2021/03/12 11:21:20;;;;;;;2.50;1.65;;;;;;;9.00;50.33;100438.88;5009215;28;20030;-73
2021/03/12 11:23:46;;;;;;;4.07;2.10;;;;;;;9.03;51.06;100433.84;5014679;28;20506;-73
2021/03/12 11:26:16;;;;;;;7.13;1.80;;;;;;;9.36;50.12;100440.97;5012782;28;20101;-73
2021/03/12 11:28:42;;;;;;;6.20;1.90;;;;;;;9.59;49.60;100442.59;5011044;28;20030;-73
2021/03/12 11:31:09;;;;;;;3.17;1.70;;;;;;;9.78;48.74;100436.94;5008910;28;20035;-73
2021/03/12 11:33:35;;;;;;;4.25;1.75;;;;;;;9.53;48.60;100440.13;5014823;28;20044;-73
2021/03/12 11:36:03;;;;;;;4.10;1.90;;;;;;;9.25;49.58;100449.09;5005947;28;20030;-73
2021/03/12 11:38:29;;;;;;;5.40;1.95;;;;;;;9.03;48.34;100436.50;5019248;28;20022;-73
2021/03/12 11:40:56;;;;;;;5.80;1.60;;;;;;;9.47;47.41;100446.44;5015383;28;20450;-73
2021/03/12 11:43:21;;;;;;;5.82;1.60;;;;;;;9.53;46.35;100445.47;5013517;28;21714;-73
2021/03/12 11:45:47;;;;;;;2.67;1.63;;;;;;;9.75;46.91;100445.47;5007875;28;20253;-73